Time;durP1;ratioP1;P1;durP2;ratioP2;P2;SDS_P1;SDS_P2;PMS_P1;PMS_P2;Temp;Humidity;BMP_temperature;BMP_pressure;BME280_temperature;BME280_humidity;BME280_pressure;Samples;Min_cycle;Max_cycle;Signal;HPM_P1;HPM_P2
2022/11/10 00:00:57;;;;;;;26.25;17.48;;;;;;;7.52;81.65;99471.66;5109498;28;20096;-71
2022/11/10 00:03:27;;;;;;;26.65;18.45;;;;;;;7.50;81.50;99473.47;5126850;28;20089;-71
2022/11/10 00:05:54;;;;;;;24.02;16.17;;;;;;;7.46;81.45;99474.53;5126689;28;20115;-71
2022/11/10 00:08:21;;;;;;;23.70;16.65;;;;;;;7.44;81.42;99468.47;5127156;28;20084;-71
2022/11/10 00:10:57;;;;;;;21.27;15.50;;;;;;;7.42;80.82;99472.94;5126121;28;20063;-72
2022/11/10 00:13:25;;;;;;;21.38;14.85;;;;;;;7.38;81.07;99475.69;5108622;28;20211;-71
2022/11/10 00:18:38;;;;;;;20.73;14.45;;;;;;;7.28;80.80;99482.22;5126687;28;20220;-72
2022/11/10 00:21:06;;;;;;;20.75;14.20;;;;;;;7.28;80.66;99484.84;5126302;28;20044;-72
2022/11/10 00:23:33;;;;;;;19.30;13.75;;;;;;;7.26;80.52;99488.47;5126058;28;20101;-72
2022/11/10 00:26:00;;;;;;;20.50;13.90;;;;;;;7.28;80.71;99486.63;5126724;28;20092;-72
2022/11/10 00:28:30;;;;;;;20.10;14.50;;;;;;;7.21;80.62;99480.75;5126310;28;20050;-72
2022/11/10 00:30:57;;;;;;;23.40;14.88;;;;;;;7.22;80.50;99492.16;5108568;28;20039;-72
2022/11/10 00:33:24;;;;;;;25.92;16.05;;;;;;;7.19;80.61;99493.13;5108600;28;20035;-72
2022/11/10 00:35:52;;;;;;;21.90;14.48;;;;;;;7.17;80.49;99489.69;5126309;28;20051;-72
2022/11/10 00:38:19;;;;;;;23.13;15.75;;;;;;;6.82;80.58;99432.25;5126030;28;20051;-72
2022/11/10 00:40:45;;;;;;;23.20;13.80;;;;;;;7.13;80.52;99482.81;5108853;28;20271;-72
2022/11/10 00:43:12;;;;;;;26.25;16.45;;;;;;;6.47;80.55;99375.63;5126343;28;20043;-72
2022/11/10 00:45:42;;;;;;;25.65;16.08;;;;;;;7.11;80.74;99495.22;5126408;28;20101;-72
2022/11/10 00:48:09;;;;;;;23.17;15.27;;;;;;;7.10;80.62;99496.13;5126314;28;20047;-71
2022/11/10 00:50:36;;;;;;;26.15;16.60;;;;;;;7.09;80.86;99496.19;5108069;28;20060;-71
2022/11/10 00:53:04;;;;;;;22.58;14.85;;;;;;;7.08;80.89;99492.69;5108171;28;20031;-71
2022/11/10 00:55:31;;;;;;;22.30;14.32;;;;;;;6.92;80.83;99481.03;5125999;28;20054;-72
2022/11/10 00:57:58;;;;;;;25.75;16.17;;;;;;;7.05;80.92;99500.72;5126231;28;20043;-72
2022/11/10 01:00:25;;;;;;;25.00;15.32;;;;;;;7.03;80.86;99515.72;5126234;28;20195;-72
2022/11/10 01:02:52;;;;;;;22.17;15.48;;;;;;;7.03;80.86;99510.47;5107997;28;20048;-71
2022/11/10 01:05:18;;;;;;;20.75;13.15;;;;;;;4.74;80.54;99140.03;5107997;28;20039;-72
2022/11/10 01:07:45;;;;;;;21.15;14.45;;;;;;;6.97;80.79;99523.88;5108504;28;20080;-72
2022/11/10 01:10:13;;;;;;;23.08;16.70;;;;;;;6.73;80.78;99494.00;5126126;28;20052;-72
2022/11/10 01:12:40;;;;;;;19.17;14.68;;;;;;;6.88;80.93;99529.47;5126358;28;20148;-72
2022/11/10 01:15:08;;;;;;;21.70;13.93;;;;;;;6.36;80.93;99483.94;5107920;28;20310;-72
2022/11/10 01:17:35;;;;;;;20.40;14.98;;;;;;;6.86;81.03;99531.31;5126045;28;20172;-73
2022/11/10 01:20:02;;;;;;;21.98;15.30;;;;;;;6.84;80.95;99539.28;5125728;28;20054;-73
2022/11/10 01:22:28;;;;;;;22.80;14.88;;;;;;;6.81;80.97;99538.53;5110617;28;20039;-72
2022/11/10 01:24:55;;;;;;;18.88;13.63;;;;;;;6.49;80.92;99484.38;5111740;28;20044;-72
2022/11/10 01:27:23;;;;;;;21.77;15.00;;;;;;;6.64;81.06;99515.41;5129639;28;20306;-73
2022/11/10 01:29:50;;;;;;;20.98;14.20;;;;;;;6.79;81.14;99530.66;5111399;28;20051;-72
2022/11/10 01:32:17;;;;;;;22.52;14.85;;;;;;;6.81;80.96;99533.25;5129933;28;20047;-73
2022/11/10 01:34:46;;;;;;;22.20;15.43;;;;;;;3.53;80.58;98982.38;5129581;28;20031;-71
2022/11/10 01:37:13;;;;;;;30.50;20.20;;;;;;;6.80;81.08;99521.84;5129728;28;20036;-72
2022/11/10 01:39:40;;;;;;;18.73;13.45;;;;;;;6.78;80.67;99525.44;5112080;28;20047;-71
2022/11/10 01:42:07;;;;;;;16.45;12.90;;;;;;;6.01;80.34;99417.66;5111880;28;20039;-71
2022/11/10 01:44:36;;;;;;;16.17;11.82;;;;;;;6.31;80.47;99459.56;5129257;28;20089;-71
2022/11/10 01:47:02;;;;;;;16.98;12.68;;;;;;;6.74;80.37;99533.44;5129584;28;20039;-71
2022/11/10 01:49:31;;;;;;;16.45;12.55;;;;;;;6.75;80.38;99529.03;5107811;28;20245;-71
2022/11/10 01:52:03;;;;;;;16.08;12.38;;;;;;;6.33;80.12;99471.75;5108382;28;20067;-71
2022/11/10 01:54:34;;;;;;;14.40;11.93;;;;;;;6.69;80.21;99529.25;5109258;28;20044;-71
2022/11/10 01:57:05;;;;;;;14.05;11.05;;;;;;;6.16;80.15;99508.34;5108697;28;20043;-71
2022/11/10 01:59:35;;;;;;;17.45;12.30;;;;;;;6.67;80.32;99539.00;5108891;28;20191;-71
2022/11/10 02:02:09;;;;;;;17.20;11.82;;;;;;;6.65;80.17;99540.81;5108824;28;20036;-70
2022/11/10 02:04:38;;;;;;;14.18;12.18;;;;;;;6.49;80.16;99510.69;5107646;28;20044;-69
2022/11/10 02:07:06;;;;;;;15.25;11.20;;;;;;;6.68;80.14;99543.34;5107914;28;20234;-69
2022/11/10 02:09:32;;;;;;;14.88;11.18;;;;;;;6.67;80.13;99553.03;5108381;28;20070;-70
2022/11/10 02:11:59;;;;;;;16.83;12.15;;;;;;;6.68;80.07;99546.84;5107543;28;20040;-70
2022/11/10 02:14:26;;;;;;;18.27;10.93;;;;;;;6.66;nan;99545.19;5107653;28;20345;-70
2022/11/10 02:16:53;;;;;;;17.83;11.52;;;;;;;6.63;80.09;99546.16;5108615;28;20090;-70
2022/11/10 02:19:23;;;;;;;14.98;12.05;;;;;;;6.61;80.15;99545.34;5107473;28;20047;-71
2022/11/10 02:21:52;;;;;;;17.20;12.43;;;;;;;6.59;80.23;99541.06;5107368;28;20036;-70
2022/11/10 02:24:18;;;;;;;17.98;13.98;;;;;;;6.56;80.29;99549.06;5107190;28;20085;-70
2022/11/10 02:26:50;;;;;;;15.93;13.05;;;;;;;6.20;80.44;99503.84;5108375;28;20044;-70
2022/11/10 02:29:16;;;;;;;16.70;11.70;;;;;;;6.56;80.41;99559.59;5108103;28;20044;-70
2022/11/10 02:31:44;;;;;;;18.05;15.15;;;;;;;6.58;80.33;99558.63;5107058;28;20040;-71
2022/11/10 02:34:10;;;;;;;17.13;13.15;;;;;;;6.59;80.40;99564.75;5107133;28;20043;-71
2022/11/10 02:36:37;;;;;;;15.23;12.07;;;;;;;6.10;80.29;99483.09;5108262;28;20333;-71
2022/11/10 02:39:05;;;;;;;14.50;11.55;;;;;;;6.56;80.34;99563.09;5107789;28;20238;-71
2022/11/10 02:41:32;;;;;;;15.98;12.07;;;;;;;6.57;80.33;99567.44;5107857;28;20109;-71
2022/11/10 02:44:00;;;;;;;16.27;11.77;;;;;;;6.58;80.33;99571.78;5107750;28;20047;-70
2022/11/10 02:46:26;;;;;;;13.57;10.90;;;;;;;6.58;80.37;99568.31;5108006;28;20287;-71
2022/11/10 02:48:53;;;;;;;16.00;12.50;;;;;;;6.40;80.33;99544.34;5106649;28;20056;-71
2022/11/10 02:51:20;;;;;;;17.02;11.80;;;;;;;6.59;80.64;99575.28;5107927;28;20044;-71
2022/11/10 02:53:48;;;;;;;14.98;11.13;;;;;;;6.58;80.31;99578.84;5107523;28;20085;-71
2022/11/10 02:56:17;;;;;;;18.27;12.68;;;;;;;6.56;80.34;99573.63;5107501;28;20193;-70
2022/11/10 02:58:43;;;;;;;16.33;12.25;;;;;;;6.54;80.34;99569.31;5108306;28;20040;-70
2022/11/10 03:01:10;;;;;;;13.77;11.10;;;;;;;6.55;80.37;99581.56;5107983;28;20040;-70
2022/11/10 03:03:37;;;;;;;16.42;11.85;;;;;;;6.22;80.32;99523.06;5107284;28;20044;-71
2022/11/10 03:06:04;;;;;;;15.10;11.18;;;;;;;6.55;80.21;99582.44;5107848;28;20043;-71
2022/11/10 03:08:30;;;;;;;14.43;10.85;;;;;;;6.27;80.36;99547.44;5107296;28;20040;-71
2022/11/10 03:10:57;;;;;;;15.90;11.00;;;;;;;5.97;80.26;99508.13;5107201;28;20322;-71
2022/11/10 03:13:26;;;;;;;15.15;11.38;;;;;;;6.54;80.38;99593.88;5107146;28;20234;-72
2022/11/10 03:15:52;;;;;;;13.80;10.55;;;;;;;6.53;80.42;99594.78;5107328;28;20040;-72
2022/11/10 03:18:19;;;;;;;15.35;11.32;;;;;;;6.55;80.28;99587.69;5107316;28;20059;-71
2022/11/10 03:20:48;;;;;;;14.88;11.63;;;;;;;6.56;80.22;99591.19;5106227;28;20040;-72
2022/11/10 03:23:16;;;;;;;16.00;10.82;;;;;;;6.01;80.30;99512.38;5107329;28;20043;-71
2022/11/10 03:25:43;;;;;;;13.65;10.82;;;;;;;6.56;80.26;99594.69;5107429;28;20055;-71
2022/11/10 03:28:10;;;;;;;12.20;10.70;;;;;;;6.60;80.23;99598.94;5107455;28;20039;-71
2022/11/10 03:30:38;;;;;;;12.65;10.18;;;;;;;6.40;80.17;99554.88;5107087;28;20093;-71
2022/11/10 03:33:06;;;;;;;15.13;10.77;;;;;;;6.60;80.02;99603.34;5107323;28;20048;-70
2022/11/10 03:35:33;;;;;;;14.50;11.13;;;;;;;6.52;80.17;99587.81;5106726;28;20040;-72
2022/11/10 03:37:59;;;;;;;14.40;10.50;;;;;;;6.22;80.33;99558.13;5106928;28;20039;-71
2022/11/10 03:40:27;;;;;;;15.13;11.05;;;;;;;6.63;80.18;99598.81;5106653;28;20051;-71
2022/11/10 03:42:53;;;;;;;13.20;10.13;;;;;;;6.64;80.19;99600.53;5106028;28;20040;-73
2022/11/10 03:45:20;;;;;;;13.45;10.48;;;;;;;6.65;80.27;99604.03;5105804;28;20044;-72
2022/11/10 03:47:49;;;;;;;14.15;9.98;;;;;;;5.70;79.97;99454.69;5106897;28;20101;-72
2022/11/10 03:50:17;;;;;;;12.40;9.25;;;;;;;6.16;80.18;99533.81;5122259;28;20063;-72
2022/11/10 03:52:45;;;;;;;12.18;9.75;;;;;;;6.62;80.48;99615.53;5127161;28;20199;-71
2022/11/10 03:55:13;;;;;;;12.00;9.55;;;;;;;6.62;80.18;99610.28;5108909;28;20044;-72
2022/11/10 03:57:40;;;;;;;13.18;8.90;;;;;;;6.63;79.95;99612.00;5126786;28;20043;-72
2022/11/10 04:00:08;;;;;;;13.15;9.77;;;;;;;6.66;80.18;99622.41;5126703;28;20055;-72
2022/11/10 04:02:35;;;;;;;11.70;8.27;;;;;;;6.66;80.08;99618.94;5109008;28;20043;-72
2022/11/10 04:10:35;;;;;;;11.35;8.43;;;;;;;6.65;79.92;99620.69;5109540;28;20039;-72
2022/11/10 04:15:46;;;;;;;12.88;9.57;;;;;;;6.65;80.00;99614.56;5094344;28;20063;-72
2022/11/10 04:18:23;;;;;;;11.40;8.82;;;;;;;6.65;79.99;99614.56;5126938;28;20306;-72
2022/11/10 04:20:52;;;;;;;12.02;8.88;;;;;;;6.65;80.07;99610.16;5108688;28;20036;-72
2022/11/10 04:23:29;;;;;;;10.93;9.20;;;;;;;6.32;80.03;99551.66;5126743;28;20081;-72
2022/11/10 04:28:43;;;;;;;12.30;9.40;;;;;;;6.68;80.08;99627.63;5126268;28;20039;-73
2022/11/10 04:31:10;;;;;;;10.70;8.25;;;;;;;6.71;80.31;99627.53;5126224;28;20088;-71
2022/11/10 04:33:38;;;;;;;9.68;8.15;;;;;;;6.72;80.18;99630.09;5126444;28;20069;-71
2022/11/10 04:36:08;;;;;;;10.52;7.53;;;;;;;6.72;79.79;99640.63;5126411;28;20044;-71
2022/11/10 04:38:35;;;;;;;10.75;7.65;;;;;;;6.74;80.13;99638.81;5125971;28;20047;-71
2022/11/10 04:41:02;;;;;;;10.05;7.72;;;;;;;6.76;80.18;99644.03;5108496;28;20091;-72
2022/11/10 04:43:29;;;;;;;8.98;7.32;;;;;;;6.24;79.97;99556.31;5126659;28;20048;-72
2022/11/10 04:45:57;;;;;;;9.20;6.80;;;;;;;6.79;80.10;99641.28;5125906;28;20295;-72
2022/11/10 04:48:24;;;;;;;8.85;6.68;;;;;;;6.81;80.24;99646.53;5108119;28;20207;-72
2022/11/10 04:50:52;;;;;;;8.52;6.13;;;;;;;6.81;79.98;99646.53;5085526;28;20044;-72
2022/11/10 04:53:20;;;;;;;10.23;7.45;;;;;;;6.84;nan;99649.06;5085388;28;20227;-72
2022/11/10 04:55:47;;;;;;;7.40;5.82;;;;;;;6.85;80.10;99656.91;5087382;28;20040;-71
2022/11/10 04:58:15;;;;;;;9.13;7.38;;;;;;;5.64;79.93;99449.63;5089443;28;20075;-71
2022/11/10 05:00:42;;;;;;;10.02;7.40;;;;;;;6.87;80.12;99655.09;5088457;28;20051;-71
2022/11/10 05:03:10;;;;;;;8.43;7.05;;;;;;;6.89;80.16;99647.13;5089571;28;20098;-72
2022/11/10 05:05:37;;;;;;;8.65;7.00;;;;;;;6.91;80.06;99682.19;5089341;28;20044;-71
2022/11/10 05:08:04;;;;;;;9.25;7.55;;;;;;;6.92;80.11;99660.19;5089463;28;20040;-72
2022/11/10 05:10:32;;;;;;;9.30;7.82;;;;;;;6.92;80.34;99668.97;5089518;28;20052;-72
2022/11/10 05:12:59;;;;;;;9.05;7.32;;;;;;;6.93;80.41;99661.91;5088376;28;20093;-71
2022/11/10 05:15:26;;;;;;;10.93;7.70;;;;;;;6.96;80.41;99664.44;5089104;28;20040;-71
2022/11/10 05:17:54;;;;;;;9.95;6.97;;;;;;;6.98;80.44;99668.75;5089613;28;20284;-71
2022/11/10 05:20:23;;;;;;;10.55;8.05;;;;;;;6.98;80.64;99675.78;5088265;28;20354;-71
2022/11/10 05:25:35;;;;;;;10.73;7.07;;;;;;;7.03;80.56;99665.94;5088560;28;20044;-71
2022/11/10 05:28:02;;;;;;;10.00;7.65;;;;;;;7.04;80.52;99668.53;5088048;28;20078;-71
2022/11/10 05:30:29;;;;;;;9.20;7.75;;;;;;;6.77;80.49;99637.00;5089090;28;20346;-71
2022/11/10 05:32:56;;;;;;;11.07;7.82;;;;;;;6.80;80.38;99645.69;5088753;28;20048;-71
2022/11/10 05:35:24;;;;;;;10.35;8.27;;;;;;;7.07;80.24;99686.00;5087983;28;20090;-71
2022/11/10 05:37:50;;;;;;;11.70;9.43;;;;;;;6.91;80.14;99655.84;5088646;28;20045;-71
2022/11/10 05:40:18;;;;;;;10.07;7.35;;;;;;;6.96;80.08;99674.97;5088932;28;20098;-71
2022/11/10 05:42:47;;;;;;;10.95;7.90;;;;;;;7.08;80.16;99693.00;5088470;28;20048;-71
2022/11/10 05:45:14;;;;;;;12.32;9.18;;;;;;;7.11;80.04;99705.19;5088472;28;20066;-72
2022/11/10 05:47:41;;;;;;;12.25;8.80;;;;;;;7.13;79.96;99696.31;5087622;28;20040;-71
2022/11/10 05:50:09;;;;;;;12.93;9.40;;;;;;;7.14;80.01;99695.41;5117630;28;20056;-72
2022/11/10 05:52:39;;;;;;;12.48;9.63;;;;;;;7.18;80.15;99709.34;5111508;28;20047;-71
2022/11/10 05:55:06;;;;;;;14.63;9.48;;;;;;;7.22;80.08;99713.59;5112097;28;20042;-72
2022/11/10 05:57:33;;;;;;;12.88;9.30;;;;;;;7.25;80.10;99710.84;5129372;28;20047;-71
2022/11/10 06:00:02;;;;;;;11.93;8.77;;;;;;;7.29;80.29;99694.00;5111115;28;20059;-72
2022/11/10 06:02:29;;;;;;;13.10;9.25;;;;;;;6.86;80.24;99629.66;5111098;28;20051;-71
2022/11/10 06:04:55;;;;;;;10.52;8.32;;;;;;;7.39;80.67;99700.69;5110898;28;20032;-71
2022/11/10 06:07:22;;;;;;;12.52;7.97;;;;;;;7.42;80.78;99707.63;5093470;28;20298;-72
2022/11/10 06:09:49;;;;;;;13.18;9.20;;;;;;;7.47;80.92;99718.88;5128828;28;20044;-71
2022/11/10 06:12:16;;;;;;;10.02;7.72;;;;;;;7.17;81.01;99665.44;5129026;28;20039;-71
2022/11/10 06:14:42;;;;;;;11.82;7.97;;;;;;;7.54;80.96;99729.13;5128717;28;20294;-70
2022/11/10 06:17:10;;;;;;;9.77;7.57;;;;;;;7.55;80.94;99727.34;5129141;28;20039;-71
2022/11/10 06:19:37;;;;;;;9.05;6.85;;;;;;;6.49;81.25;99568.63;5128839;28;20100;-70
2022/11/10 06:22:04;;;;;;;8.63;6.50;;;;;;;7.59;81.19;99743.00;5128626;28;20039;-71
2022/11/10 06:24:31;;;;;;;9.95;7.47;;;;;;;7.44;81.20;99711.94;5128682;28;20309;-72
2022/11/10 06:26:58;;;;;;;10.73;7.05;;;;;;;7.64;81.32;99748.13;5128469;28;20042;-71
2022/11/10 06:29:25;;;;;;;8.60;7.43;;;;;;;7.66;81.11;99760.34;5128979;28;20113;-70
2022/11/10 06:31:51;;;;;;;9.50;8.02;;;;;;;7.70;81.21;99766.34;5128688;28;20279;-71
2022/11/10 06:34:20;;;;;;;8.15;6.40;;;;;;;7.72;81.24;99766.31;5128221;28;20088;-71
2022/11/10 06:36:46;;;;;;;10.00;6.82;;;;;;;7.75;81.52;99780.25;5111325;28;20333;-71
2022/11/10 06:39:13;;;;;;;8.93;6.57;;;;;;;7.78;82.03;99788.03;5128507;28;20035;-70
2022/11/10 06:41:40;;;;;;;9.35;6.93;;;;;;;7.74;82.14;99780.28;5128450;28;20089;-71
2022/11/10 06:44:07;;;;;;;7.82;6.30;;;;;;;5.12;82.44;99355.88;5128422;28;20100;-71
2022/11/10 06:46:34;;;;;;;7.18;5.47;;;;;;;7.88;82.91;99788.56;5127837;28;20218;-72
2022/11/10 06:49:01;;;;;;;5.97;4.50;;;;;;;7.94;83.33;99793.63;5128196;28;20120;-71
2022/11/10 06:51:29;;;;;;;6.93;5.00;;;;;;;7.79;83.24;99776.56;5127773;28;20053;-71
2022/11/10 06:53:56;;;;;;;6.20;5.13;;;;;;;8.07;83.75;99807.22;5128433;28;20044;-71
2022/11/10 06:56:23;;;;;;;7.20;6.13;;;;;;;8.14;83.76;99811.34;5127865;28;20051;-71
2022/11/10 06:58:50;;;;;;;6.35;5.25;;;;;;;8.21;84.41;99808.41;5127753;28;20252;-72
2022/11/10 07:01:18;;;;;;;6.18;5.13;;;;;;;8.16;84.08;99794.53;5128139;28;20055;-71
2022/11/10 07:03:45;;;;;;;7.28;5.95;;;;;;;8.34;83.80;99817.56;5128076;28;20035;-72
2022/11/10 07:06:11;;;;;;;6.63;5.70;;;;;;;8.16;83.82;99791.88;5127690;28;20039;-72
2022/11/10 07:08:40;;;;;;;6.03;4.78;;;;;;;8.40;84.01;99827.03;5127864;28;20047;-72
2022/11/10 07:11:06;;;;;;;6.20;5.22;;;;;;;8.41;84.18;99828.75;5109809;28;20085;-71
2022/11/10 07:13:33;;;;;;;6.50;5.50;;;;;;;8.46;83.88;99828.59;5110186;28;20043;-72
2022/11/10 07:16:04;;;;;;;5.60;4.70;;;;;;;8.48;84.17;99835.53;5109676;28;20121;-72
2022/11/10 07:18:31;;;;;;;6.95;5.22;;;;;;;8.55;84.01;99833.50;5109385;28;20040;-71
2022/11/10 07:20:57;;;;;;;8.30;5.47;;;;;;;8.58;84.22;99844.81;5109180;28;20051;-71
2022/11/10 07:23:24;;;;;;;6.07;5.18;;;;;;;8.42;83.83;99805.84;5127259;28;20040;-71
2022/11/10 07:25:52;;;;;;;7.93;5.18;;;;;;;8.65;83.80;99846.28;5127275;28;20040;-71
2022/11/10 07:28:19;;;;;;;6.53;5.07;;;;;;;8.71;83.78;99845.19;5109736;28;20051;-71
2022/11/10 07:30:46;;;;;;;5.85;4.85;;;;;;;8.74;83.93;99844.22;5127883;28;20043;-71
2022/11/10 07:33:14;;;;;;;6.80;5.80;;;;;;;8.80;83.82;99859.81;5092566;28;20073;-71
2022/11/10 07:35:42;;;;;;;8.23;5.28;;;;;;;8.65;83.65;99827.81;5110186;28;20032;-71
2022/11/10 07:38:10;;;;;;;5.75;4.50;;;;;;;8.87;83.89;99861.28;5127237;28;20229;-71
2022/11/10 07:40:38;;;;;;;6.70;5.10;;;;;;;8.91;83.67;99862.91;5127010;28;20233;-71
2022/11/10 07:43:06;;;;;;;6.47;5.53;;;;;;;8.93;83.55;99867.19;5127219;28;20088;-71
2022/11/10 07:45:33;;;;;;;6.55;5.63;;;;;;;8.97;83.60;99868.78;5126803;28;20321;-71
2022/11/10 07:48:01;;;;;;;6.47;5.13;;;;;;;8.99;83.59;99876.66;5127096;28;20249;-71
2022/11/10 07:50:27;;;;;;;7.00;5.30;;;;;;;8.92;83.75;99854.03;5105324;28;20059;-71
2022/11/10 07:53:02;;;;;;;5.80;4.80;;;;;;;9.06;83.83;99887.84;5106532;28;20048;-72
2022/11/10 07:55:29;;;;;;;5.63;4.53;;;;;;;9.10;83.64;99887.66;5106189;28;20040;-72
2022/11/10 07:57:57;;;;;;;7.60;5.68;;;;;;;8.72;83.43;99828.41;5105368;28;20044;-71
2022/11/10 08:00:25;;;;;;;6.63;5.55;;;;;;;9.17;83.57;99897.06;5106447;28;20047;-72
2022/11/10 08:02:52;;;;;;;5.82;4.57;;;;;;;9.21;83.33;99904.00;5105660;28;20233;-72
2022/11/10 08:05:19;;;;;;;5.85;4.93;;;;;;;9.06;83.14;99872.00;5106300;28;20048;-71
2022/11/10 08:07:46;;;;;;;6.43;5.07;;;;;;;7.84;83.24;99666.44;5105619;28;20345;-71
2022/11/10 08:10:13;;;;;;;5.13;4.35;;;;;;;9.28;83.34;99905.47;5105343;28;20326;-71
2022/11/10 08:12:39;;;;;;;6.20;4.90;;;;;;;9.30;83.28;99911.53;5105835;28;20097;-71
2022/11/10 08:15:07;;;;;;;6.80;5.43;;;;;;;9.32;83.55;99911.47;5106323;28;20215;-71
2022/11/10 08:17:37;;;;;;;6.03;4.90;;;;;;;9.35;83.55;99905.22;5105261;28;20093;-71
2022/11/10 08:20:05;;;;;;;5.50;4.32;;;;;;;9.36;83.58;99901.63;5104832;28;20044;-71
2022/11/10 08:22:32;;;;;;;6.15;4.43;;;;;;;9.43;83.24;99924.31;5106412;28;20048;-71
2022/11/10 08:24:58;;;;;;;6.30;5.00;;;;;;;9.44;83.37;99924.25;5105492;28;20043;-71
2022/11/10 08:27:25;;;;;;;5.95;4.85;;;;;;;9.48;83.38;99920.53;5106098;28;20043;-71
2022/11/10 08:29:52;;;;;;;5.75;4.70;;;;;;;9.53;83.34;99925.63;5105959;28;20044;-71
2022/11/10 08:32:20;;;;;;;5.40;4.40;;;;;;;9.47;83.49;99910.03;5106309;28;20361;-71
2022/11/10 08:34:48;;;;;;;5.07;4.43;;;;;;;9.45;83.41;99899.50;5106189;28;20036;-71
2022/11/10 08:37:14;;;;;;;5.72;5.13;;;;;;;9.62;83.41;99914.66;5105541;28;20044;-72
2022/11/10 08:39:41;;;;;;;5.32;4.80;;;;;;;9.66;83.44;99926.84;5105286;28;20043;-71
2022/11/10 08:42:08;;;;;;;5.18;4.13;;;;;;;9.04;83.46;99820.97;5105682;28;20085;-71
2022/11/10 08:44:35;;;;;;;4.95;4.28;;;;;;;9.54;83.30;99907.06;5105548;28;20036;-71
2022/11/10 08:47:01;;;;;;;5.47;4.68;;;;;;;9.34;83.24;99877.91;5105802;28;20291;-71
2022/11/10 08:49:28;;;;;;;5.72;4.47;;;;;;;9.77;83.45;99953.72;5114563;28;20066;-70
2022/11/10 08:51:57;;;;;;;10.40;4.28;;;;;;;9.80;83.38;99958.03;5109094;28;20047;-71
2022/11/10 08:54:24;;;;;;;4.95;4.20;;;;;;;9.83;83.47;99965.84;5127707;28;20062;-71
2022/11/10 08:56:51;;;;;;;4.70;3.95;;;;;;;9.88;83.29;99964.72;5127488;28;20043;-71
2022/11/10 08:59:17;;;;;;;4.63;3.78;;;;;;;9.91;83.04;99964.59;5128527;28;20221;-71
2022/11/10 09:01:44;;;;;;;5.30;4.63;;;;;;;9.94;83.08;99971.53;5127905;28;20069;-71
2022/11/10 09:04:14;;;;;;;5.03;4.53;;;;;;;9.97;82.94;99973.19;5125994;28;20198;-71
2022/11/10 09:06:41;;;;;;;5.28;4.53;;;;;;;9.99;82.82;99982.78;5108614;28;20070;-70
2022/11/10 09:09:09;;;;;;;4.75;4.05;;;;;;;10.03;82.67;99979.09;5108477;28;20185;-71
2022/11/10 09:11:36;;;;;;;5.35;4.30;;;;;;;10.06;82.63;99986.91;5125788;28;20352;-70
2022/11/10 09:14:03;;;;;;;4.32;3.58;;;;;;;10.09;82.40;99997.34;5126062;28;20061;-71
2022/11/10 09:16:30;;;;;;;4.43;3.80;;;;;;;10.10;82.45;99998.22;5125726;28;20046;-71
2022/11/10 09:18:56;;;;;;;4.43;3.70;;;;;;;10.13;82.40;100000.75;5126220;28;20291;-71
2022/11/10 09:21:23;;;;;;;5.03;4.20;;;;;;;10.00;82.17;99973.06;5091630;28;20039;-71
2022/11/10 09:23:50;;;;;;;3.97;3.35;;;;;;;7.59;81.92;99568.06;5107802;28;20295;-71
2022/11/10 09:26:18;;;;;;;4.13;3.65;;;;;;;10.18;82.00;100004.91;5125507;28;20048;-71
2022/11/10 09:28:45;;;;;;;4.43;3.70;;;;;;;10.25;81.91;100008.16;5125569;28;20100;-72
2022/11/10 09:31:12;;;;;;;4.38;3.80;;;;;;;10.30;81.87;100023.84;5107771;28;20040;-71
2022/11/10 09:33:38;;;;;;;3.88;3.40;;;;;;;10.18;81.47;99996.09;5108424;28;20325;-71
2022/11/10 09:36:07;;;;;;;5.07;3.45;;;;;;;10.33;81.52;100029.88;5125691;28;20043;-70
2022/11/10 09:38:34;;;;;;;4.72;3.72;;;;;;;10.36;81.36;100028.88;5108386;28;20062;-71
2022/11/10 09:41:02;;;;;;;5.20;3.90;;;;;;;10.39;81.45;100029.59;5125711;28;20238;-70
2022/11/10 09:43:37;;;;;;;4.00;3.20;;;;;;;10.40;81.26;100031.31;5111083;28;20047;-69
2022/11/10 09:46:14;;;;;;;3.80;3.28;;;;;;;10.42;81.03;100036.56;5129783;28;20169;-70
2022/11/10 09:48:45;;;;;;;4.72;3.67;;;;;;;10.45;81.12;100039.94;5129071;28;20050;-71
2022/11/10 09:51:19;;;;;;;5.35;3.70;;;;;;;10.46;80.94;100040.81;5129455;28;20047;-70
2022/11/10 09:53:50;;;;;;;4.22;3.35;;;;;;;10.47;80.86;100048.69;5129760;28;20247;-70
2022/11/10 09:56:21;;;;;;;3.92;3.20;;;;;;;8.85;80.88;99768.84;5129266;28;20051;-71
2022/11/10 09:58:51;;;;;;;4.25;3.25;;;;;;;10.34;80.74;100010.41;5129253;28;20043;-70
2022/11/10 10:01:30;;;;;;;4.22;3.17;;;;;;;10.24;80.37;99987.88;5111099;28;20188;-70
2022/11/10 10:04:07;;;;;;;4.57;3.58;;;;;;;10.57;80.59;100043.84;5128833;28;20043;-70
2022/11/10 10:06:41;;;;;;;4.35;3.72;;;;;;;10.58;80.33;100049.06;5128655;28;20043;-70
2022/11/10 10:09:18;;;;;;;5.03;3.80;;;;;;;7.71;79.87;99572.84;5128828;28;20047;-71
2022/11/10 10:11:59;;;;;;;4.90;4.00;;;;;;;10.45;80.23;100033.78;5129137;28;20168;-70
2022/11/10 10:14:49;;;;;;;4.80;3.78;;;;;;;10.62;80.15;100049.78;5128838;28;20237;-70
2022/11/10 10:17:24;;;;;;;4.50;3.38;;;;;;;10.63;79.93;100063.91;5129170;28;20191;-71
2022/11/10 10:19:57;;;;;;;4.32;3.22;;;;;;;10.45;79.97;100037.28;5128954;28;20177;-70
2022/11/10 10:22:47;;;;;;;5.03;4.20;;;;;;;10.65;79.59;100072.66;5128814;28;20036;-70
2022/11/10 10:25:21;;;;;;;4.15;3.30;;;;;;;10.65;79.75;100068.22;5128365;28;20051;-71
2022/11/10 10:27:51;;;;;;;4.67;3.57;;;;;;;10.38;79.92;100019.06;5111359;28;20035;-72
2022/11/10 10:30:21;;;;;;;5.93;4.00;;;;;;;10.68;79.64;100064.56;5110503;28;20047;-72
2022/11/10 10:32:48;;;;;;;4.82;3.55;;;;;;;10.67;79.58;100076.09;5110692;28;20326;-71
2022/11/10 10:35:16;;;;;;;5.32;3.50;;;;;;;10.68;79.38;100083.13;5128709;28;20085;-71
2022/11/10 10:37:46;;;;;;;5.10;3.80;;;;;;;9.71;79.32;99953.97;5128376;28;20039;-70
2022/11/10 10:40:19;;;;;;;5.28;4.63;;;;;;;10.68;79.49;100078.69;5128988;28;20073;-71
2022/11/10 10:42:46;;;;;;;5.50;4.28;;;;;;;10.70;79.73;100081.28;5110723;28;20052;-73
2022/11/10 10:45:29;;;;;;;5.60;4.18;;;;;;;10.23;79.63;100010.88;5110304;28;20059;-71
2022/11/10 10:48:00;;;;;;;5.10;4.35;;;;;;;9.69;79.41;99921.41;5124915;28;20051;-71
2022/11/10 10:50:30;;;;;;;5.00;3.88;;;;;;;9.81;79.37;99935.91;5127979;28;20329;-72
2022/11/10 10:53:12;;;;;;;5.60;4.03;;;;;;;10.27;79.34;100015.09;5110272;28;20035;-71
2022/11/10 10:55:45;;;;;;;5.50;4.45;;;;;;;10.70;79.49;100087.44;5110055;28;20241;-70
2022/11/10 10:58:20;;;;;;;6.28;4.57;;;;;;;10.69;79.34;100079.53;5109899;28;20050;-72
2022/11/10 11:00:48;;;;;;;6.05;4.40;;;;;;;10.69;79.58;100096.31;5127923;28;20286;-72
2022/11/10 11:03:26;;;;;;;5.80;4.22;;;;;;;10.69;79.37;100092.81;5109908;28;20306;-72
2022/11/10 11:06:06;;;;;;;5.68;4.40;;;;;;;10.68;79.05;100089.28;5127603;28;20044;-70
2022/11/10 11:08:33;;;;;;;5.18;4.10;;;;;;;10.67;79.53;100092.88;5109686;28;20040;-71
2022/11/10 11:11:10;;;;;;;5.32;4.60;;;;;;;10.51;79.11;100076.78;5127956;28;20234;-71
2022/11/10 11:13:37;;;;;;;5.35;4.30;;;;;;;10.67;79.38;100100.81;5109612;28;20046;-71
2022/11/10 11:16:07;;;;;;;6.15;4.25;;;;;;;10.69;79.31;100103.41;5127361;28;20096;-71
2022/11/10 11:18:39;;;;;;;4.57;4.10;;;;;;;10.67;79.13;100106.13;5127864;28;20059;-71
2022/11/10 11:21:15;;;;;;;6.60;5.25;;;;;;;10.39;79.25;100071.16;5109279;28;20168;-71
2022/11/10 11:24:06;;;;;;;5.53;4.40;;;;;;;10.68;78.97;100112.28;5127597;28;20039;-71
2022/11/10 11:26:42;;;;;;;5.05;4.03;;;;;;;10.21;79.38;100030.41;5109340;28;20036;-70
2022/11/10 11:29:24;;;;;;;5.00;3.85;;;;;;;10.12;79.13;100026.38;5127543;28;20055;-70
2022/11/10 11:32:06;;;;;;;5.18;4.68;;;;;;;10.68;78.93;100117.59;5127437;28;20036;-71
2022/11/10 11:34:39;;;;;;;5.95;4.75;;;;;;;10.69;79.19;100124.63;5110046;28;20039;-70
2022/11/10 11:37:16;;;;;;;5.60;4.20;;;;;;;10.68;78.94;100133.50;5109182;28;20040;-70
2022/11/10 11:39:54;;;;;;;5.97;4.78;;;;;;;10.52;78.90;100094.41;5127234;28;20035;-71
2022/11/10 11:42:39;;;;;;;5.57;4.80;;;;;;;10.72;78.88;100138.59;5109452;28;20044;-71
2022/11/10 11:45:18;;;;;;;6.90;5.10;;;;;;;10.72;79.24;100133.28;5108951;28;20039;-71
2022/11/10 11:48:01;;;;;;;4.90;4.10;;;;;;;10.74;79.17;100133.22;5093336;28;20218;-71
2022/11/10 11:50:36;;;;;;;6.95;5.13;;;;;;;10.74;78.97;100141.19;5126553;28;20108;-71
2022/11/10 11:53:15;;;;;;;7.13;4.80;;;;;;;10.47;78.97;100095.53;5126673;28;20065;-71
2022/11/10 11:55:57;;;;;;;6.20;4.38;;;;;;;10.77;78.84;100146.34;5109714;28;20031;-70